createdAt,value
2022-10-17T00:03:27.556Z,16.70
2022-10-17T00:07:09.216Z,16.70
2022-10-17T00:10:59.254Z,16.70
2022-10-17T00:14:41.007Z,16.60
2022-10-17T00:18:22.687Z,16.60
2022-10-17T00:22:04.501Z,16.60
2022-10-17T00:25:46.204Z,16.60
2022-10-17T00:29:27.882Z,16.60
2022-10-17T00:33:09.617Z,16.60
2022-10-17T00:36:51.312Z,16.60
2022-10-17T00:40:33.185Z,16.60
2022-10-17T00:44:30.109Z,16.60
2022-10-17T00:48:11.807Z,16.60
2022-10-17T00:51:56.296Z,16.60
2022-10-17T00:56:04.573Z,16.50
2022-10-17T00:59:49.070Z,16.60
2022-10-17T01:03:31.930Z,16.60
2022-10-17T01:07:13.627Z,16.60
2022-10-17T01:11:02.048Z,16.50
2022-10-17T01:15:04.836Z,16.50
2022-10-17T01:18:52.946Z,16.50
2022-10-17T01:22:59.063Z,16.60
2022-10-17T01:26:59.393Z,16.60
2022-10-17T01:30:44.460Z,16.60
2022-10-17T01:34:51.993Z,16.60
2022-10-17T01:38:46.444Z,16.60
2022-10-17T01:42:46.102Z,16.70
2022-10-17T01:46:37.341Z,16.60
2022-10-17T01:50:22.570Z,16.70
2022-10-17T01:54:10.025Z,16.70
2022-10-17T01:57:59.263Z,16.70
2022-10-17T02:01:42.026Z,16.70
2022-10-17T02:05:26.614Z,16.70
2022-10-17T02:09:25.086Z,16.70
2022-10-17T02:13:14.082Z,16.70
2022-10-17T02:17:16.427Z,16.70
2022-10-17T02:21:08.676Z,16.60
2022-10-17T02:25:00.618Z,16.60
2022-10-17T02:28:58.110Z,16.60
2022-10-17T02:32:56.199Z,16.60
2022-10-17T02:36:43.884Z,16.60
2022-10-17T02:40:26.872Z,16.60
2022-10-17T02:44:08.566Z,16.60
2022-10-17T02:48:15.635Z,16.60
2022-10-17T02:52:05.634Z,16.60
2022-10-17T02:55:51.638Z,16.50
2022-10-17T03:03:24.826Z,16.50
2022-10-17T03:07:06.498Z,16.50
2022-10-17T03:10:48.391Z,16.50
2022-10-17T03:14:30.067Z,16.50
2022-10-17T03:18:11.759Z,16.50
2022-10-17T03:21:53.866Z,16.50
2022-10-17T03:25:35.524Z,16.50
2022-10-17T03:29:17.272Z,16.40
2022-10-17T03:33:00.203Z,16.40
2022-10-17T03:36:41.877Z,16.40
2022-10-17T03:40:23.658Z,16.30
2022-10-17T03:44:05.312Z,16.30
2022-10-17T03:47:46.969Z,16.30
2022-10-17T03:51:30.150Z,16.30
2022-10-17T03:55:11.807Z,16.30
2022-10-17T03:58:54.548Z,16.30
2022-10-17T04:02:37.481Z,16.20
2022-10-17T04:06:19.309Z,16.20
2022-10-17T04:10:01.026Z,16.20
2022-10-17T04:13:43.381Z,16.20
2022-10-17T04:17:25.114Z,16.20
2022-10-17T04:21:08.219Z,16.20
2022-10-17T04:24:49.890Z,16.20
2022-10-17T04:28:32.122Z,16.20
2022-10-17T04:32:14.171Z,16.20
2022-10-17T04:36:03.100Z,16.20
2022-10-17T04:39:44.759Z,16.10
2022-10-17T04:43:26.502Z,16.10
2022-10-17T04:47:08.344Z,16.10
2022-10-17T04:51:01.338Z,16.10
2022-10-17T04:54:43.004Z,16.10
2022-10-17T04:58:24.685Z,16.10
2022-10-17T05:02:07.557Z,16.10
2022-10-17T05:05:49.229Z,16.00
2022-10-17T05:09:30.962Z,16.00
2022-10-17T05:13:13.040Z,15.90
2022-10-17T05:16:54.871Z,15.90
2022-10-17T05:20:36.803Z,15.80
2022-10-17T05:24:18.488Z,15.80
2022-10-17T05:28:00.154Z,15.80
2022-10-17T05:31:43.129Z,15.70
2022-10-17T05:35:24.845Z,15.70
2022-10-17T05:39:06.534Z,15.60
2022-10-17T05:42:48.738Z,15.60
2022-10-17T05:46:30.441Z,15.60
2022-10-17T05:50:12.275Z,15.60
2022-10-17T05:53:54.007Z,15.50
2022-10-17T05:57:35.838Z,15.50
2022-10-17T06:01:18.000Z,15.40
2022-10-17T06:04:59.663Z,15.40
2022-10-17T06:08:41.470Z,15.40
2022-10-17T06:12:23.367Z,15.40
2022-10-17T06:16:05.458Z,15.30
2022-10-17T06:19:47.674Z,15.30
2022-10-17T06:23:30.511Z,15.30
2022-10-17T06:27:12.369Z,15.20
2022-10-17T06:30:54.134Z,15.20
2022-10-17T06:34:35.821Z,15.20
2022-10-17T06:38:17.481Z,15.20
2022-10-17T06:42:01.090Z,15.20
2022-10-17T06:45:42.772Z,15.20
2022-10-17T06:49:24.682Z,15.20
2022-10-17T06:53:06.438Z,15.20
2022-10-17T06:56:48.098Z,15.20
2022-10-17T07:00:30.042Z,15.20
2022-10-17T07:04:11.728Z,15.30
2022-10-17T07:07:53.385Z,15.30
2022-10-17T07:11:35.296Z,15.30
2022-10-17T07:15:17.018Z,15.30
2022-10-17T07:18:58.698Z,15.30
2022-10-17T07:22:40.603Z,15.40
2022-10-17T07:26:22.328Z,15.40
2022-10-17T07:30:04.398Z,15.40
2022-10-17T07:37:33.367Z,15.40
2022-10-17T07:41:19.296Z,15.50
2022-10-17T07:45:03.865Z,15.50
2022-10-17T07:48:45.637Z,15.50
2022-10-17T07:52:28.785Z,15.60
2022-10-17T07:56:10.694Z,15.60
2022-10-17T07:59:54.137Z,15.60
2022-10-17T08:03:36.099Z,15.70
2022-10-17T08:07:22.922Z,15.70
2022-10-17T08:11:10.039Z,15.80
2022-10-17T08:14:51.778Z,15.80
2022-10-17T08:18:34.099Z,15.90
2022-10-17T08:22:16.058Z,15.90
2022-10-17T08:26:01.671Z,15.90
2022-10-17T08:29:43.720Z,15.90
2022-10-17T08:33:26.743Z,15.90
2022-10-17T08:37:08.454Z,15.90
2022-10-17T08:40:50.326Z,16.00
2022-10-17T08:44:54.322Z,16.00
2022-10-17T08:48:44.092Z,16.00
2022-10-17T08:52:41.566Z,16.10
2022-10-17T08:56:48.889Z,16.10
2022-10-17T09:00:31.270Z,16.20
2022-10-17T09:04:19.123Z,16.20
2022-10-17T09:08:22.142Z,16.20
2022-10-17T09:12:20.941Z,16.30
2022-10-17T09:16:08.835Z,16.40
2022-10-17T09:19:55.906Z,16.50
2022-10-17T09:23:45.474Z,16.50
2022-10-17T09:28:21.524Z,16.60
2022-10-17T09:32:05.235Z,16.60
2022-10-17T09:35:46.913Z,16.70
2022-10-17T09:39:32.010Z,16.80
2022-10-17T09:43:15.468Z,16.80
2022-10-17T09:46:57.123Z,16.80
2022-10-17T09:50:39.011Z,16.90
2022-10-17T09:54:27.643Z,16.90
2022-10-17T09:58:09.818Z,16.90
2022-10-17T10:01:53.658Z,16.90
2022-10-17T10:05:35.386Z,17.00
2022-10-17T10:09:24.717Z,17.00
2022-10-17T10:13:22.551Z,17.10
2022-10-17T10:17:05.717Z,17.10
2022-10-17T10:20:47.619Z,17.20
2022-10-17T10:24:31.039Z,17.20
2022-10-17T10:28:14.872Z,17.20
2022-10-17T10:32:08.444Z,17.30
2022-10-17T10:36:16.838Z,17.40
2022-10-17T10:40:06.086Z,17.40
2022-10-17T10:43:49.248Z,17.50
2022-10-17T10:47:32.099Z,17.60
2022-10-17T10:51:16.450Z,17.60
2022-10-17T10:55:20.697Z,17.70
2022-10-17T10:59:08.207Z,17.80
2022-10-17T11:03:01.927Z,17.90
2022-10-17T11:06:44.755Z,17.90
2022-10-17T11:10:37.629Z,18.10
2022-10-17T11:14:51.751Z,18.20
2022-10-17T11:18:34.368Z,18.30
2022-10-17T11:22:17.017Z,18.50
2022-10-17T11:26:01.225Z,18.60
2022-10-17T11:29:43.039Z,18.60
2022-10-17T11:33:54.829Z,18.60
2022-10-17T11:37:41.035Z,18.60
2022-10-17T11:41:39.115Z,18.60
2022-10-17T11:45:22.237Z,18.70
2022-10-17T11:49:16.139Z,18.80
2022-10-17T11:53:14.961Z,18.80
2022-10-17T11:57:15.495Z,18.90
2022-10-17T12:01:15.233Z,19.00
2022-10-17T12:05:01.818Z,19.10
2022-10-17T12:09:04.752Z,19.10
2022-10-17T12:12:48.158Z,19.00
2022-10-17T12:16:37.374Z,19.00
2022-10-17T12:20:21.232Z,19.10
2022-10-17T12:24:03.342Z,19.10
2022-10-17T12:27:46.350Z,19.10
2022-10-17T12:31:33.673Z,19.10
2022-10-17T12:35:20.935Z,19.10
2022-10-17T12:39:02.580Z,19.10
2022-10-17T12:42:48.889Z,19.20
2022-10-17T12:46:51.190Z,19.30
2022-10-17T12:51:34.201Z,19.30
2022-10-17T12:55:17.981Z,19.40
2022-10-17T12:58:59.682Z,19.40
2022-10-17T13:02:41.648Z,19.40
2022-10-17T13:06:27.911Z,19.50
2022-10-17T13:14:13.321Z,19.50
2022-10-17T13:18:01.221Z,19.50
2022-10-17T13:21:56.036Z,19.50
2022-10-17T13:25:39.605Z,19.50
2022-10-17T13:29:23.368Z,19.50
2022-10-17T13:33:18.776Z,19.50
2022-10-17T13:37:05.331Z,19.60
2022-10-17T13:40:50.252Z,19.50
2022-10-17T13:44:35.366Z,19.60
2022-10-17T13:48:25.133Z,19.60
2022-10-17T13:52:08.015Z,19.70
2022-10-17T13:56:15.852Z,19.60
2022-10-17T13:59:59.583Z,19.60
2022-10-17T14:03:48.611Z,19.70
2022-10-17T14:08:09.409Z,19.70
2022-10-17T14:11:42.813Z,19.80
2022-10-17T14:15:29.948Z,19.90
2022-10-17T14:19:35.840Z,19.90
2022-10-17T14:23:44.312Z,20.00
2022-10-17T14:27:38.058Z,20.10
2022-10-17T14:31:21.589Z,20.10
2022-10-17T14:35:18.218Z,20.10
2022-10-17T14:39:01.791Z,20.20
2022-10-17T14:42:43.803Z,20.20
2022-10-17T14:46:25.631Z,20.20
2022-10-17T14:50:20.461Z,20.20
2022-10-17T14:54:25.471Z,20.20
2022-10-17T14:58:27.862Z,20.10
2022-10-17T15:02:10.431Z,20.10
2022-10-17T15:05:53.092Z,20.20
2022-10-17T15:09:34.812Z,20.20
2022-10-17T15:13:39.220Z,20.20
2022-10-17T15:17:22.433Z,20.30
2022-10-17T15:21:25.677Z,20.50
2022-10-17T15:25:08.655Z,20.60
2022-10-17T15:28:50.692Z,20.60
2022-10-17T15:32:32.570Z,20.60
2022-10-17T15:36:28.195Z,20.60
2022-10-17T15:40:20.467Z,20.80
2022-10-17T15:44:02.144Z,21.00
2022-10-17T15:47:46.261Z,21.00
2022-10-17T15:51:28.683Z,20.90
2022-10-17T15:55:10.870Z,20.70
2022-10-17T15:58:52.616Z,20.60
2022-10-17T16:02:35.174Z,20.40
2022-10-17T16:06:18.641Z,20.30
2022-10-17T16:10:00.497Z,20.00
2022-10-17T16:13:42.560Z,20.00
2022-10-17T16:17:24.261Z,19.80
2022-10-17T16:21:06.049Z,19.70
2022-10-17T16:24:47.714Z,19.70
2022-10-17T16:28:29.717Z,19.70
2022-10-17T16:32:11.750Z,19.70
2022-10-17T16:35:53.526Z,19.60
2022-10-17T16:39:35.210Z,19.50
2022-10-17T16:43:17.133Z,19.40
2022-10-17T16:46:58.862Z,19.30
2022-10-17T16:50:40.847Z,19.20
2022-10-17T16:54:22.521Z,19.20
2022-10-17T16:58:04.183Z,19.00
2022-10-17T17:01:46.218Z,19.00
2022-10-17T17:05:28.319Z,18.80
2022-10-17T17:09:10.004Z,18.70
2022-10-17T17:12:51.883Z,18.60
2022-10-17T17:16:34.163Z,18.50
2022-10-17T17:20:16.061Z,18.30
2022-10-17T17:23:59.174Z,18.20
2022-10-17T17:27:41.121Z,18.10
2022-10-17T17:31:24.598Z,17.90
2022-10-17T17:35:06.377Z,17.80
2022-10-17T17:38:48.618Z,17.60
2022-10-17T17:42:30.558Z,17.50
2022-10-17T17:46:12.803Z,17.40
2022-10-17T17:49:54.483Z,17.30
2022-10-17T17:53:36.518Z,17.20
2022-10-17T17:57:18.345Z,17.10
2022-10-17T18:01:00.549Z,17.00
2022-10-17T18:04:42.277Z,16.90
2022-10-17T18:08:24.162Z,16.80
2022-10-17T18:12:06.078Z,16.70
2022-10-17T18:15:51.602Z,16.60
2022-10-17T18:19:33.406Z,16.60
2022-10-17T18:23:15.380Z,16.50
2022-10-17T18:26:59.805Z,16.40
2022-10-17T18:30:41.753Z,16.30
2022-10-17T18:34:23.477Z,16.30
2022-10-17T18:38:05.190Z,16.20
2022-10-17T18:41:47.213Z,16.10
2022-10-17T18:45:28.984Z,16.00
2022-10-17T18:49:13.311Z,16.00
2022-10-17T18:52:55.017Z,15.90
2022-10-17T18:56:36.737Z,15.80
2022-10-17T19:00:19.562Z,15.80
2022-10-17T19:04:01.314Z,15.70
2022-10-17T19:07:42.980Z,15.60
2022-10-17T19:11:25.798Z,15.50
2022-10-17T19:15:07.933Z,15.50
2022-10-17T19:19:23.367Z,15.40
2022-10-17T19:23:07.214Z,15.40
2022-10-17T19:26:55.541Z,15.30
2022-10-17T19:30:41.389Z,15.30
2022-10-17T19:34:23.134Z,15.20
2022-10-17T19:38:04.791Z,15.20
2022-10-17T19:41:47.431Z,15.10
2022-10-17T19:45:29.164Z,15.00
2022-10-17T19:49:10.897Z,15.00
2022-10-17T19:52:52.853Z,14.90
2022-10-17T19:56:37.681Z,14.90
2022-10-17T20:00:20.665Z,14.80
2022-10-17T20:04:02.369Z,14.80
2022-10-17T20:07:44.050Z,14.70
2022-10-17T20:11:27.744Z,14.60
2022-10-17T20:15:09.509Z,14.60
2022-10-17T20:18:51.949Z,14.50
2022-10-17T20:22:33.866Z,14.40
2022-10-17T20:30:19.660Z,14.30
2022-10-17T20:34:01.409Z,14.30
2022-10-17T20:37:43.066Z,14.20
2022-10-17T20:41:26.396Z,14.10
2022-10-17T20:45:08.407Z,14.10
2022-10-17T20:48:53.810Z,14.00
2022-10-17T20:52:36.300Z,13.90
2022-10-17T20:56:29.551Z,13.90
2022-10-17T21:00:11.790Z,13.80
2022-10-17T21:03:53.559Z,13.80
2022-10-17T21:07:35.275Z,13.70
2022-10-17T21:11:19.830Z,13.60
2022-10-17T21:15:01.514Z,13.60
2022-10-17T21:18:43.466Z,13.50
2022-10-17T21:22:25.458Z,13.50
2022-10-17T21:26:08.931Z,13.40
2022-10-17T21:29:51.159Z,13.40
2022-10-17T21:33:34.174Z,13.40
2022-10-17T21:37:16.364Z,13.30
2022-10-17T21:40:58.406Z,13.30
2022-10-17T21:44:40.078Z,13.30
2022-10-17T21:48:21.844Z,13.20
2022-10-17T21:52:06.704Z,13.20
2022-10-17T21:55:48.387Z,13.10
2022-10-17T21:59:31.905Z,13.10
2022-10-17T22:03:15.144Z,13.10
2022-10-17T22:06:56.871Z,13.00
2022-10-17T22:10:39.159Z,13.00
2022-10-17T22:14:21.900Z,13.00
2022-10-17T22:18:03.658Z,13.00
2022-10-17T22:21:45.587Z,13.00
2022-10-17T22:25:27.261Z,12.90
2022-10-17T22:29:09.008Z,12.90
2022-10-17T22:32:51.850Z,12.80
2022-10-17T22:36:33.709Z,12.80
2022-10-17T22:40:15.675Z,12.80
2022-10-17T22:43:57.344Z,12.80
2022-10-17T22:47:39.066Z,12.70
2022-10-17T22:51:20.946Z,12.70
2022-10-17T22:55:19.534Z,12.70
2022-10-17T22:59:01.247Z,12.60
2022-10-17T23:02:43.270Z,12.60
2022-10-17T23:06:25.038Z,12.60
2022-10-17T23:10:07.265Z,12.50
2022-10-17T23:13:49.094Z,12.50
2022-10-17T23:17:30.765Z,12.50
2022-10-17T23:21:13.776Z,12.50
2022-10-17T23:24:55.508Z,12.40
2022-10-17T23:28:37.417Z,12.40
2022-10-17T23:32:20.906Z,12.40
2022-10-17T23:36:06.077Z,12.30
2022-10-17T23:39:47.747Z,12.30
2022-10-17T23:43:31.569Z,12.30
2022-10-17T23:47:13.189Z,12.20
2022-10-17T23:50:56.520Z,12.30
2022-10-17T23:54:38.250Z,12.20
2022-10-17T23:58:19.997Z,12.20
